Terminal Aerodrome Forecast
Issued by NWS Wakefield, VA

Home | Current Version | Previous Version | Text Only | Print | Product List | Glossary On
Versions: 1 2 3 4 5 6 7 8 9 10 11 12 13 14 15 16 17 18 19 20 21 22 23 24 25
000
FTUS41 KAKQ 240148 AAB
TAFORF
TAF AMD
KORF 240148Z 2402/2424 VRB03KT 2SM BR BKN002
      TEMPO 2402/2404 4SM BR SCT002
     FM240600 21006KT 1SM BR OVC003
     FM241500 23008KT P6SM OVC015
     FM241600 23009KT P6SM BKN035=

USA.gov is the U.S. government's official web portal to all federal, state and local government web resources and services.